createdAt,value
2023-05-24T00:00:33.382Z,100779.34
2023-05-24T00:03:09.446Z,100772.78
2023-05-24T00:06:09.474Z,100776.72
2023-05-24T00:09:07.938Z,100776.47
2023-05-24T00:11:42.223Z,100773.63
2023-05-24T00:14:24.443Z,100765.91
2023-05-24T00:16:54.078Z,100765.63
2023-05-24T00:19:27.733Z,100765.00
2023-05-24T00:21:58.163Z,100764.72
2023-05-24T00:24:36.592Z,100762.38
2023-05-24T00:27:13.566Z,100765.00
2023-05-24T00:29:48.582Z,100767.06
2023-05-24T00:32:20.172Z,100759.84
2023-05-24T00:34:52.924Z,100766.94
2023-05-24T00:37:25.430Z,100765.53
2023-05-24T00:39:57.031Z,100760.03
2023-05-24T00:42:25.716Z,100754.81
2023-05-24T00:44:56.426Z,100754.69
2023-05-24T00:47:37.138Z,100748.81
2023-05-24T00:50:10.786Z,100744.41
2023-05-24T00:52:53.994Z,100746.94
2023-05-24T00:55:25.670Z,100750.91
2023-05-24T00:57:56.612Z,100756.72
2023-05-24T01:00:28.437Z,100755.31
2023-05-24T01:02:58.270Z,100760.47
2023-05-24T01:05:29.706Z,100760.63
2023-05-24T01:08:57.518Z,100769.84
2023-05-24T01:11:49.056Z,100763.59
2023-05-24T01:14:59.734Z,100765.91
2023-05-24T01:18:33.625Z,100769.38
2023-05-24T01:22:24.394Z,100774.81
2023-05-24T01:25:06.130Z,100769.59
2023-05-24T01:28:01.317Z,100776.72
2023-05-24T01:30:40.592Z,100781.59
2023-05-24T01:33:11.719Z,100772.34
2023-05-24T01:35:49.255Z,100770.81
2023-05-24T01:38:21.432Z,100767.00
2023-05-24T01:41:00.883Z,100772.84
2023-05-24T01:44:16.371Z,100769.81
2023-05-24T01:47:24.225Z,100776.66
2023-05-24T01:50:32.828Z,100772.13
2023-05-24T01:53:25.890Z,100775.81
2023-05-24T01:56:07.587Z,100779.31
2023-05-24T01:58:41.299Z,100778.22
2023-05-24T02:01:14.871Z,100781.78
2023-05-24T02:03:49.130Z,100779.91
2023-05-24T02:06:21.721Z,100775.75
2023-05-24T02:08:53.149Z,100771.66
2023-05-24T02:11:25.624Z,100770.06
2023-05-24T02:13:56.444Z,100774.16
2023-05-24T02:16:29.952Z,100772.56
2023-05-24T02:19:01.065Z,100781.19
2023-05-24T02:21:32.004Z,100770.78
2023-05-24T02:24:02.155Z,100776.69
2023-05-24T02:26:35.964Z,100776.50
2023-05-24T02:29:05.816Z,100778.34
2023-05-24T02:31:38.659Z,100774.09
2023-05-24T02:34:10.721Z,100770.19
2023-05-24T02:36:46.611Z,100768.63
2023-05-24T02:39:19.647Z,100764.47
2023-05-24T02:41:49.758Z,100759.28
2023-05-24T02:44:24.571Z,100756.88
2023-05-24T02:46:55.684Z,100761.81
2023-05-24T02:49:25.572Z,100758.66
2023-05-24T02:52:03.997Z,100747.44
2023-05-24T02:54:36.073Z,100746.41
2023-05-24T02:57:09.533Z,100748.94
2023-05-24T02:59:39.939Z,100735.91
2023-05-24T03:02:09.698Z,100740.94
2023-05-24T03:04:40.190Z,100739.47
2023-05-24T03:07:18.146Z,100735.81
2023-05-24T03:09:51.904Z,100732.69
2023-05-24T03:12:24.672Z,100744.44
2023-05-24T03:14:54.308Z,100742.25
2023-05-24T03:17:28.459Z,100734.59
2023-05-24T03:19:58.345Z,100729.03
2023-05-24T03:22:28.091Z,100732.06
2023-05-24T03:25:02.066Z,100722.16
2023-05-24T03:27:33.978Z,100725.22
2023-05-24T03:30:05.268Z,100718.63
2023-05-24T03:32:47.570Z,100718.94
2023-05-24T03:35:21.148Z,100715.72
2023-05-24T03:37:54.089Z,100723.59
2023-05-24T03:40:25.903Z,100717.22
2023-05-24T03:42:58.340Z,100717.41
2023-05-24T03:45:49.273Z,100717.97
2023-05-24T03:48:23.479Z,100723.72
2023-05-24T03:50:54.243Z,100720.31
2023-05-24T03:53:25.559Z,100718.34
2023-05-24T03:55:54.901Z,100713.16
2023-05-24T03:58:26.121Z,100706.19
2023-05-24T04:00:56.245Z,100702.25
2023-05-24T04:03:28.307Z,100702.97
2023-05-24T04:05:58.645Z,100698.94
2023-05-24T04:08:29.069Z,100705.94
2023-05-24T04:11:01.958Z,100702.13
2023-05-24T04:13:35.044Z,100699.25
2023-05-24T04:16:08.097Z,100691.72
2023-05-24T04:18:40.281Z,100693.88
2023-05-24T04:21:10.157Z,100687.25
2023-05-24T04:23:41.519Z,100684.72
2023-05-24T04:26:21.089Z,100683.06
2023-05-24T04:28:50.041Z,100673.88
2023-05-24T04:31:21.474Z,100667.56
2023-05-24T04:33:51.917Z,100660.84
2023-05-24T04:36:23.836Z,100668.66
2023-05-24T04:38:58.120Z,100663.16
2023-05-24T04:41:29.752Z,100667.16
2023-05-24T04:44:01.319Z,100668.69
2023-05-24T04:46:32.506Z,100665.47
2023-05-24T04:49:03.005Z,100671.06
2023-05-24T04:51:34.732Z,100660.72
2023-05-24T04:54:10.477Z,100662.50
2023-05-24T04:56:41.829Z,100666.75
2023-05-24T04:59:26.409Z,100661.47
2023-05-24T05:01:57.962Z,100663.41
2023-05-24T05:04:31.228Z,100655.56
2023-05-24T05:07:01.834Z,100649.66
2023-05-24T05:09:35.481Z,100642.59
2023-05-24T05:12:05.282Z,100644.13
2023-05-24T05:14:34.663Z,100642.72
2023-05-24T05:17:06.142Z,100644.50
2023-05-24T05:19:38.097Z,100643.78
2023-05-24T05:22:09.625Z,100635.03
2023-05-24T05:24:39.870Z,100633.50
2023-05-24T05:27:10.548Z,100627.56
2023-05-24T05:29:42.533Z,100628.41
2023-05-24T05:32:20.394Z,100633.22
2023-05-24T05:34:50.662Z,100628.31
2023-05-24T05:37:21.407Z,100617.78
2023-05-24T05:39:49.976Z,100619.41
2023-05-24T05:42:21.677Z,100616.00
2023-05-24T05:44:51.895Z,100619.91
2023-05-24T05:47:23.722Z,100612.00
2023-05-24T05:49:53.668Z,100604.94
2023-05-24T05:52:24.054Z,100600.69
2023-05-24T05:54:53.959Z,100606.06
2023-05-24T05:57:25.558Z,100599.16
2023-05-24T05:59:55.792Z,100606.50
2023-05-24T06:02:25.972Z,100600.06
2023-05-24T06:04:55.678Z,100595.31
2023-05-24T06:07:25.418Z,100608.00
2023-05-24T06:09:56.194Z,100598.69
2023-05-24T06:12:26.209Z,100592.31
2023-05-24T06:14:58.522Z,100591.16
2023-05-24T06:17:29.746Z,100592.50
2023-05-24T06:20:02.644Z,100595.81
2023-05-24T06:22:33.932Z,100600.22
2023-05-24T06:25:05.222Z,100600.00
2023-05-24T06:27:38.511Z,100592.41
2023-05-24T06:30:10.350Z,100593.03
2023-05-24T06:32:45.151Z,100591.19
2023-05-24T06:35:19.763Z,100593.09
2023-05-24T06:37:49.573Z,100585.09
2023-05-24T06:40:21.724Z,100587.41
2023-05-24T06:42:51.894Z,100583.28
2023-05-24T06:45:22.021Z,100578.53
2023-05-24T06:47:53.444Z,100584.00
2023-05-24T06:50:26.178Z,100581.88
2023-05-24T06:53:08.039Z,100587.63
2023-05-24T06:55:38.121Z,100584.53
2023-05-24T06:58:17.312Z,100591.16
2023-05-24T07:00:51.706Z,100582.19
2023-05-24T07:03:22.142Z,100587.09
2023-05-24T07:05:52.955Z,100582.06
2023-05-24T07:08:25.051Z,100583.16
2023-05-24T07:10:58.576Z,100576.19
2023-05-24T07:13:29.994Z,100583.72
2023-05-24T07:16:00.845Z,100584.78
2023-05-24T07:18:32.043Z,100585.16
2023-05-24T07:21:02.267Z,100582.25
2023-05-24T07:23:35.899Z,100580.50
2023-05-24T07:26:12.777Z,100578.03
2023-05-24T07:28:52.032Z,100582.44
2023-05-24T07:31:22.212Z,100576.25
2023-05-24T07:33:53.427Z,100575.69
2023-05-24T07:36:25.911Z,100582.72
2023-05-24T07:38:57.385Z,100573.13
2023-05-24T07:41:29.969Z,100567.91
2023-05-24T07:43:59.788Z,100573.09
2023-05-24T07:46:53.225Z,100582.91
2023-05-24T07:49:39.578Z,100577.00
2023-05-24T07:52:41.279Z,100577.28
2023-05-24T07:59:13.595Z,100568.75
2023-05-24T08:02:35.671Z,100568.03
2023-05-24T08:05:37.082Z,100567.75
2023-05-24T08:08:37.500Z,100559.78
2023-05-24T08:12:28.566Z,100559.88
2023-05-24T08:21:41.672Z,100571.53
2023-05-24T08:25:49.632Z,100577.19
2023-05-24T08:28:56.603Z,100565.47
2023-05-24T08:31:43.172Z,100564.66
2023-05-24T08:34:34.290Z,100561.38
2023-05-24T08:37:32.542Z,100563.63
2023-05-24T08:40:08.958Z,100563.31
2023-05-24T08:43:19.526Z,100567.88
2023-05-24T08:53:59.269Z,100571.44
2023-05-24T08:57:40.105Z,100566.94
2023-05-24T09:01:04.625Z,100576.72
2023-05-24T09:03:59.713Z,100565.56
2023-05-24T09:10:07.749Z,100563.75
2023-05-24T09:13:12.250Z,100551.63
2023-05-24T09:16:21.088Z,100551.38
2023-05-24T09:18:53.531Z,100541.78
2023-05-24T09:22:17.412Z,100543.94
2023-05-24T09:29:38.762Z,100555.59
2023-05-24T09:47:50.944Z,100552.63
2023-05-24T09:50:39.158Z,100555.59
2023-05-24T09:53:37.696Z,100550.03
2023-05-24T09:56:16.669Z,100548.88
2023-05-24T09:59:00.321Z,100558.59
2023-05-24T10:06:54.152Z,100558.34
2023-05-24T10:10:56.683Z,100551.13
2023-05-24T10:14:43.991Z,100549.47
2023-05-24T10:17:53.684Z,100559.22
2023-05-24T10:24:46.985Z,100541.13
2023-05-24T10:28:32.827Z,100536.81
2023-05-24T10:31:38.898Z,100534.13
2023-05-24T10:34:16.956Z,100541.22
2023-05-24T10:36:52.216Z,100542.22
2023-05-24T10:39:39.763Z,100542.41
2023-05-24T10:42:10.713Z,100543.63
2023-05-24T10:44:57.391Z,100536.03
2023-05-24T10:47:35.384Z,100540.19
2023-05-24T10:50:26.002Z,100540.81
2023-05-24T10:53:20.257Z,100542.97
2023-05-24T10:56:30.692Z,100530.59
2023-05-24T10:59:15.967Z,100529.94
2023-05-24T11:03:05.763Z,100535.09
2023-05-24T11:06:31.913Z,100532.66
2023-05-24T11:09:22.265Z,100534.25
2023-05-24T11:12:07.826Z,100535.13
2023-05-24T11:15:09.544Z,100533.69
2023-05-24T11:18:17.911Z,100540.25
2023-05-24T11:20:58.253Z,100539.44
2023-05-24T11:23:36.008Z,100536.34
2023-05-24T11:27:07.669Z,100535.59
2023-05-24T11:29:57.643Z,100525.13
2023-05-24T11:33:05.138Z,100539.94
2023-05-24T11:36:01.507Z,100526.78
2023-05-24T11:39:10.131Z,100519.97
2023-05-24T11:42:11.221Z,100511.34
2023-05-24T11:45:00.505Z,100523.91
2023-05-24T11:51:40.733Z,100516.63
2023-05-24T11:54:29.198Z,100514.06
2023-05-24T12:07:23.801Z,100497.97
2023-05-24T12:09:52.816Z,100490.44
2023-05-24T12:12:30.493Z,100493.94
2023-05-24T12:15:03.330Z,100479.81
2023-05-24T12:17:32.556Z,100487.94
2023-05-24T12:20:10.516Z,100480.94
2023-05-24T12:22:52.486Z,100488.44
2023-05-24T12:25:28.051Z,100478.69
2023-05-24T12:28:04.754Z,100488.75
2023-05-24T12:30:45.189Z,100477.44
2023-05-24T12:33:28.042Z,100478.50
2023-05-24T12:36:01.984Z,100479.69
2023-05-24T12:38:33.327Z,100475.50
2023-05-24T12:41:12.941Z,100475.84
2023-05-24T12:43:45.287Z,100484.94
2023-05-24T12:46:15.257Z,100481.81
2023-05-24T12:48:44.475Z,100475.31
2023-05-24T12:51:14.734Z,100479.75
2023-05-24T12:53:44.694Z,100475.47
2023-05-24T12:56:14.090Z,100472.13
2023-05-24T12:58:43.526Z,100467.44
2023-05-24T13:01:13.277Z,100471.69
2023-05-24T13:03:44.058Z,100472.94
2023-05-24T13:06:13.190Z,100470.84
2023-05-24T13:08:43.139Z,100465.97
2023-05-24T13:11:12.424Z,100467.06
2023-05-24T13:13:42.051Z,100465.34
2023-05-24T13:16:11.845Z,100458.75
2023-05-24T13:18:40.659Z,100458.69
2023-05-24T13:21:12.027Z,100464.41
2023-05-24T13:23:44.532Z,100455.53
2023-05-24T13:26:13.969Z,100450.81
2023-05-24T13:28:59.060Z,100455.72
2023-05-24T13:31:34.873Z,100451.66
2023-05-24T13:34:06.529Z,100445.34
2023-05-24T13:36:37.064Z,100435.38
2023-05-24T13:45:04.589Z,100436.47
2023-05-24T13:47:40.096Z,100438.34
2023-05-24T13:50:10.738Z,100438.94
2023-05-24T13:52:40.158Z,100436.53
2023-05-24T13:55:11.360Z,100424.44
2023-05-24T13:57:51.173Z,100427.88
2023-05-24T14:00:22.356Z,100423.13
2023-05-24T14:02:52.666Z,100415.44
2023-05-24T14:07:54.180Z,100419.50
2023-05-24T14:10:23.576Z,100421.03
2023-05-24T14:13:07.913Z,100417.06
2023-05-24T14:15:42.967Z,100412.44
2023-05-24T14:18:13.894Z,100409.16
2023-05-24T14:20:43.260Z,100411.56
2023-05-24T14:23:12.225Z,100403.00
2023-05-24T14:25:43.240Z,100400.75
2023-05-24T14:28:13.893Z,100397.09
2023-05-24T14:30:43.816Z,100397.78
2023-05-24T14:33:13.165Z,100400.81
2023-05-24T14:35:43.775Z,100394.81
2023-05-24T14:38:13.201Z,100394.31
2023-05-24T14:40:43.309Z,100384.25
2023-05-24T14:43:12.868Z,100384.28
2023-05-24T14:45:43.001Z,100377.31
2023-05-24T14:48:13.908Z,100367.22
2023-05-24T14:50:44.755Z,100374.34
2023-05-24T14:53:14.553Z,100368.91
2023-05-24T14:55:45.231Z,100360.19
2023-05-24T14:58:14.843Z,100358.03
2023-05-24T15:00:45.099Z,100361.84
2023-05-24T15:03:15.821Z,100341.91
2023-05-24T15:05:44.541Z,100343.25
2023-05-24T15:08:13.062Z,100345.19
2023-05-24T15:10:45.259Z,100330.44
2023-05-24T15:13:15.690Z,100331.53
2023-05-24T15:15:44.909Z,100330.19
2023-05-24T15:18:13.503Z,100329.38
2023-05-24T15:20:42.316Z,100320.88
2023-05-24T15:23:11.295Z,100322.50
2023-05-24T15:25:39.967Z,100320.31
2023-05-24T15:28:11.376Z,100318.38
2023-05-24T15:30:39.629Z,100320.25
2023-05-24T15:33:45.487Z,100322.81
2023-05-24T15:36:19.704Z,100321.72
2023-05-24T15:39:02.434Z,100319.50
2023-05-24T15:41:35.386Z,100323.66
2023-05-24T15:44:16.972Z,100310.19
2023-05-24T15:46:52.372Z,100308.28
2023-05-24T15:49:40.561Z,100301.13
2023-05-24T15:52:18.042Z,100305.75
2023-05-24T15:54:46.832Z,100298.13
2023-05-24T15:57:15.478Z,100291.47
2023-05-24T15:59:44.779Z,100294.19
2023-05-24T16:02:13.879Z,100284.28
2023-05-24T16:04:42.484Z,100283.72
2023-05-24T16:07:10.957Z,100280.38
2023-05-24T16:09:39.334Z,100284.00
2023-05-24T16:12:08.433Z,100266.00
2023-05-24T16:14:37.467Z,100264.91
2023-05-24T16:17:06.277Z,100264.97
2023-05-24T16:19:34.716Z,100263.69
2023-05-24T16:22:03.015Z,100262.81
2023-05-24T16:24:31.776Z,100261.41
2023-05-24T16:27:00.189Z,100256.38
2023-05-24T16:29:29.081Z,100244.00
2023-05-24T16:31:58.292Z,100238.97
2023-05-24T16:34:26.794Z,100236.69
2023-05-24T16:36:55.253Z,100229.41
2023-05-24T16:39:23.984Z,100238.16
2023-05-24T16:41:52.687Z,100237.63
2023-05-24T16:44:21.444Z,100232.22
2023-05-24T16:46:50.044Z,100222.03
2023-05-24T16:49:18.841Z,100218.59
2023-05-24T16:51:47.647Z,100216.53
2023-05-24T16:54:16.829Z,100212.84
2023-05-24T16:56:46.652Z,100213.19
2023-05-24T16:59:17.648Z,100215.94
2023-05-24T17:01:46.154Z,100218.94
2023-05-24T17:04:15.519Z,100208.41
2023-05-24T17:06:44.527Z,100210.81
2023-05-24T17:09:13.205Z,100210.41
2023-05-24T17:11:41.856Z,100204.13
2023-05-24T17:14:10.036Z,100200.66
2023-05-24T17:16:38.326Z,100199.63
2023-05-24T17:19:07.292Z,100198.63
2023-05-24T17:21:35.658Z,100204.44
2023-05-24T17:24:04.016Z,100196.63
2023-05-24T17:26:32.290Z,100193.47
2023-05-24T17:29:00.613Z,100192.03
2023-05-24T17:31:29.329Z,100181.53
2023-05-24T17:33:58.227Z,100185.19
2023-05-24T17:36:27.672Z,100184.63
2023-05-24T17:38:58.326Z,100173.78
2023-05-24T17:41:26.861Z,100175.59
2023-05-24T17:43:55.343Z,100171.22
2023-05-24T17:46:23.814Z,100167.03
2023-05-24T17:48:54.993Z,100165.88
2023-05-24T17:51:25.102Z,100162.84
2023-05-24T17:53:53.754Z,100158.66
2023-05-24T17:56:23.770Z,100163.59
2023-05-24T17:58:52.930Z,100155.28
2023-05-24T18:01:21.850Z,100154.28
2023-05-24T18:03:50.282Z,100145.06
2023-05-24T18:06:18.981Z,100154.16
2023-05-24T18:08:47.969Z,100148.75
2023-05-24T18:11:17.114Z,100151.78
2023-05-24T18:13:46.082Z,100148.59
2023-05-24T18:16:16.540Z,100147.47
2023-05-24T18:18:45.386Z,100148.41
2023-05-24T18:21:13.805Z,100144.72
2023-05-24T18:23:43.426Z,100137.91
2023-05-24T18:26:12.753Z,100124.75
2023-05-24T18:28:42.620Z,100125.22
2023-05-24T18:31:11.350Z,100121.44
2023-05-24T18:33:39.987Z,100110.88
2023-05-24T18:36:08.783Z,100113.50
2023-05-24T18:38:40.322Z,100114.19
2023-05-24T18:41:10.564Z,100108.50
2023-05-24T18:43:39.249Z,100101.66
2023-05-24T18:46:07.765Z,100103.66
2023-05-24T18:48:36.474Z,100100.56
2023-05-24T18:51:05.070Z,100104.09
2023-05-24T18:53:33.619Z,100099.63
2023-05-24T18:56:02.281Z,100099.00
2023-05-24T18:58:31.586Z,100094.31
2023-05-24T19:00:59.872Z,100086.34
2023-05-24T19:03:28.461Z,100090.34
2023-05-24T19:05:57.338Z,100088.09
2023-05-24T19:08:25.855Z,100078.44
2023-05-24T19:10:54.431Z,100072.34
2023-05-24T19:13:23.496Z,100070.88
2023-05-24T19:15:51.885Z,100063.84
2023-05-24T19:18:20.915Z,100056.03
2023-05-24T19:20:49.502Z,100067.06
2023-05-24T19:23:17.955Z,100055.97
2023-05-24T19:25:50.597Z,100060.13
2023-05-24T19:28:19.731Z,100052.63
2023-05-24T19:30:48.128Z,100053.22
2023-05-24T19:33:17.063Z,100044.31
2023-05-24T19:35:46.130Z,100045.50
2023-05-24T19:38:18.115Z,100037.28
2023-05-24T19:40:46.808Z,100048.94
2023-05-24T19:43:16.172Z,100037.47
2023-05-24T19:45:45.627Z,100030.06
2023-05-24T19:48:14.400Z,100031.97
2023-05-24T19:50:42.714Z,100021.06
2023-05-24T19:53:11.293Z,100019.94
2023-05-24T19:55:39.864Z,100028.09
2023-05-24T19:58:08.434Z,100022.75
2023-05-24T20:00:37.051Z,100016.81
2023-05-24T20:03:05.621Z,100014.94
2023-05-24T20:05:34.065Z,100010.19
2023-05-24T20:08:02.382Z,100006.66
2023-05-24T20:10:32.594Z,100015.19
2023-05-24T20:13:01.034Z,100012.94
2023-05-24T20:15:30.140Z,100008.88
2023-05-24T20:17:59.764Z,100010.34
2023-05-24T20:20:28.298Z,100016.13
2023-05-24T20:22:56.861Z,100011.66
2023-05-24T20:25:25.713Z,100012.06
2023-05-24T20:27:54.093Z,100006.28
2023-05-24T20:30:22.483Z,100009.97
2023-05-24T20:32:51.305Z,100000.97
2023-05-24T20:35:20.112Z,100006.78
2023-05-24T20:37:48.312Z,100005.25
2023-05-24T20:40:26.446Z,99999.97
2023-05-24T20:42:56.018Z,99997.13
2023-05-24T20:45:24.409Z,99995.41
2023-05-24T20:47:53.028Z,99989.91
2023-05-24T20:50:22.307Z,99983.31
2023-05-24T20:52:50.495Z,99977.25
2023-05-24T20:55:19.694Z,99976.00
2023-05-24T20:57:48.430Z,99978.09
2023-05-24T21:00:17.704Z,99974.50
2023-05-24T21:02:46.808Z,99971.53
2023-05-24T21:05:16.112Z,99967.25
2023-05-24T21:07:44.776Z,99974.56
2023-05-24T21:10:18.252Z,99975.50
2023-05-24T21:12:48.442Z,99974.75
2023-05-24T21:15:17.125Z,99969.28
2023-05-24T21:17:45.592Z,99970.88
2023-05-24T21:20:14.326Z,99973.53
2023-05-24T21:22:49.067Z,99969.38
2023-05-24T21:25:44.172Z,99965.75
2023-05-24T21:28:12.911Z,99965.78
2023-05-24T21:30:41.562Z,99963.47
2023-05-24T21:33:09.936Z,99956.97
2023-05-24T21:35:38.896Z,99954.84
2023-05-24T21:38:07.594Z,99952.47
2023-05-24T21:40:35.973Z,99949.16
2023-05-24T21:43:05.678Z,99957.47
2023-05-24T21:45:34.119Z,99948.63
2023-05-24T21:48:02.539Z,99938.38
2023-05-24T21:50:31.338Z,99943.66
2023-05-24T21:53:00.317Z,99936.88
2023-05-24T21:55:31.473Z,99924.66
2023-05-24T21:57:59.934Z,99922.31
2023-05-24T22:00:28.720Z,99924.94
2023-05-24T22:02:57.373Z,99918.41
2023-05-24T22:05:27.585Z,99915.22
2023-05-24T22:07:56.546Z,99918.91
2023-05-24T22:10:25.893Z,99915.41
2023-05-24T22:12:54.182Z,99911.34
2023-05-24T22:15:22.395Z,99908.50
2023-05-24T22:17:50.858Z,99912.69
2023-05-24T22:20:19.769Z,99909.34
2023-05-24T22:22:54.078Z,99904.09
2023-05-24T22:25:23.022Z,99899.31
2023-05-24T22:27:51.761Z,99896.56
2023-05-24T22:30:20.159Z,99886.66
2023-05-24T22:32:48.611Z,99889.38
2023-05-24T22:35:17.228Z,99886.94
2023-05-24T22:37:54.064Z,99880.84
2023-05-24T22:40:26.210Z,99885.88
2023-05-24T22:42:54.786Z,99885.28
2023-05-24T22:45:31.028Z,99885.22
2023-05-24T22:48:00.865Z,99885.16
2023-05-24T22:50:29.597Z,99883.06
2023-05-24T22:52:59.312Z,99879.91
2023-05-24T22:55:28.215Z,99882.09
2023-05-24T22:57:56.503Z,99879.97
2023-05-24T23:00:24.953Z,99870.84
2023-05-24T23:02:54.043Z,99881.47
2023-05-24T23:05:22.792Z,99871.47
2023-05-24T23:07:52.473Z,99875.13
2023-05-24T23:10:21.408Z,99876.34
2023-05-24T23:12:51.146Z,99873.59
2023-05-24T23:15:22.759Z,99876.50
2023-05-24T23:17:53.366Z,99879.19
2023-05-24T23:20:23.720Z,99870.09
2023-05-24T23:22:52.665Z,99877.69
2023-05-24T23:25:21.913Z,99875.31
2023-05-24T23:27:51.498Z,99870.63
2023-05-24T23:30:20.085Z,99868.75
2023-05-24T23:32:50.379Z,99870.72
2023-05-24T23:35:30.767Z,99867.78
2023-05-24T23:37:59.660Z,99881.28
2023-05-24T23:40:30.450Z,99877.38
2023-05-24T23:42:59.541Z,99873.56
2023-05-24T23:45:28.339Z,99874.19
2023-05-24T23:47:57.657Z,99878.25
2023-05-24T23:50:28.028Z,99875.63
2023-05-24T23:52:57.230Z,99877.16
2023-05-24T23:55:27.011Z,99875.03
2023-05-24T23:57:56.272Z,99874.94
